< < Back
Terminal Aerodrome Forecast


Current Version              Previous Versions:   1  2  3  4  5  6  7  8  9  

Terminal Aerodrome Forecast

914
FTUS44 KMRX 161720
TAFTYS
TAF
KTYS 161720Z 1618/1718 02012KT P6SM SKC
     FM170000 00000KT P6SM SKC
     FM171400 VRB03KT P6SM SCT250=



Latest METAR

186
SAUS80 KWBC 161900 RRA
MTRTYS
METAR KTYS 161853Z 06009KT 10SM FEW250 12/M04 A3026 RMK AO2 SLP249
T01221039


USA.gov is the U.S. government's official web portal to all federal, state and local government web resources and services.